createdAt,value
2023-05-19T00:00:14.113Z,663.00
2023-05-19T00:01:14.182Z,667.00
2023-05-19T00:02:14.266Z,665.00
2023-05-19T00:03:14.263Z,663.00
2023-05-19T00:04:14.293Z,662.00
2023-05-19T00:05:14.337Z,661.00
2023-05-19T00:06:14.539Z,661.00
2023-05-19T00:07:14.449Z,660.00
2023-05-19T00:08:14.465Z,659.00
2023-05-19T00:09:14.470Z,661.00
2023-05-19T00:10:14.569Z,659.00
2023-05-19T00:11:14.595Z,658.00
2023-05-19T00:12:14.611Z,659.00
2023-05-19T00:13:14.703Z,659.00
2023-05-19T00:14:14.749Z,659.00
2023-05-19T00:15:14.781Z,658.00
2023-05-19T00:16:14.881Z,656.00
2023-05-19T00:17:14.895Z,655.00
2023-05-19T00:18:14.990Z,652.00
2023-05-19T00:19:15.052Z,653.00
2023-05-19T00:20:15.020Z,652.00
2023-05-19T00:21:15.056Z,649.00
2023-05-19T00:22:15.138Z,650.00
2023-05-19T00:23:15.150Z,648.00
2023-05-19T00:24:15.222Z,646.00
2023-05-19T00:25:15.268Z,648.00
2023-05-19T00:26:15.346Z,649.00
2023-05-19T00:27:15.345Z,651.00
2023-05-19T00:28:15.386Z,651.00
2023-05-19T00:29:15.412Z,651.00
2023-05-19T00:30:15.506Z,651.00
2023-05-19T00:31:15.549Z,653.00
2023-05-19T00:32:15.673Z,655.00
2023-05-19T00:33:15.616Z,653.00
2023-05-19T00:34:15.679Z,651.00
2023-05-19T00:35:15.696Z,650.00
2023-05-19T00:36:15.771Z,650.00
2023-05-19T00:37:15.778Z,651.00
2023-05-19T00:38:15.820Z,654.00
2023-05-19T00:39:15.917Z,653.00
2023-05-19T00:40:15.906Z,650.00
2023-05-19T00:41:15.986Z,650.00
2023-05-19T00:42:16.048Z,651.00
2023-05-19T00:43:16.034Z,651.00
2023-05-19T00:44:16.100Z,651.00
2023-05-19T00:45:16.176Z,650.00
2023-05-19T00:46:16.271Z,650.00
2023-05-19T00:47:16.330Z,650.00
2023-05-19T00:48:16.272Z,650.00
2023-05-19T00:49:16.346Z,650.00
2023-05-19T00:50:16.385Z,651.00
2023-05-19T00:51:16.392Z,652.00
2023-05-19T00:52:16.465Z,653.00
2023-05-19T00:53:16.511Z,655.00
2023-05-19T00:54:16.576Z,654.00
2023-05-19T00:55:16.606Z,653.00
2023-05-19T00:56:16.729Z,655.00
2023-05-19T00:57:16.723Z,655.00
2023-05-19T00:58:16.753Z,652.00
2023-05-19T00:59:16.831Z,653.00
2023-05-19T01:00:16.820Z,654.00
2023-05-19T01:01:17.031Z,653.00
2023-05-19T01:02:16.952Z,652.00
2023-05-19T01:03:17.106Z,652.00
2023-05-19T01:04:17.052Z,651.00
2023-05-19T01:05:17.134Z,650.00
2023-05-19T01:06:17.159Z,648.00
2023-05-19T01:07:17.190Z,647.00
2023-05-19T01:08:17.201Z,646.00
2023-05-19T01:09:17.236Z,647.00
2023-05-19T01:10:17.328Z,646.00
2023-05-19T01:11:17.313Z,646.00
2023-05-19T01:12:17.392Z,647.00
2023-05-19T01:13:17.366Z,645.00
2023-05-19T01:14:17.429Z,646.00
2023-05-19T01:15:17.529Z,649.00
2023-05-19T01:16:17.575Z,648.00
2023-05-19T01:17:17.591Z,647.00
2023-05-19T01:18:17.593Z,649.00
2023-05-19T01:19:17.697Z,649.00
2023-05-19T01:20:17.685Z,649.00
2023-05-19T01:21:17.768Z,649.00
2023-05-19T01:22:17.773Z,648.00
2023-05-19T01:23:17.814Z,651.00
2023-05-19T01:24:17.847Z,652.00
2023-05-19T01:25:17.924Z,652.00
2023-05-19T01:26:17.988Z,651.00
2023-05-19T01:27:18.001Z,653.00
2023-05-19T01:28:18.060Z,650.00
2023-05-19T01:29:18.072Z,650.00
2023-05-19T01:30:18.097Z,651.00
2023-05-19T01:31:18.198Z,651.00
2023-05-19T01:32:18.214Z,654.00
2023-05-19T01:33:18.250Z,653.00
2023-05-19T01:34:18.376Z,653.00
2023-05-19T01:35:18.354Z,653.00
2023-05-19T01:36:18.420Z,654.00
2023-05-19T01:37:18.452Z,654.00
2023-05-19T01:38:18.532Z,655.00
2023-05-19T01:39:18.592Z,656.00
2023-05-19T01:40:18.667Z,656.00
2023-05-19T01:41:18.684Z,656.00
2023-05-19T01:42:18.822Z,656.00
2023-05-19T01:43:18.788Z,656.00
2023-05-19T01:44:18.847Z,655.00
2023-05-19T01:45:18.892Z,653.00
2023-05-19T01:46:19.055Z,651.00
2023-05-19T01:47:18.990Z,653.00
2023-05-19T01:48:19.005Z,654.00
2023-05-19T01:49:19.118Z,651.00
2023-05-19T01:50:19.065Z,650.00
2023-05-19T01:51:19.172Z,650.00
2023-05-19T01:52:19.249Z,651.00
2023-05-19T01:53:19.256Z,650.00
2023-05-19T01:54:19.337Z,646.00
2023-05-19T01:55:19.392Z,640.00
2023-05-19T01:56:19.439Z,641.00
2023-05-19T01:57:19.499Z,643.00
2023-05-19T01:58:19.543Z,646.00
2023-05-19T01:59:19.576Z,647.00
2023-05-19T02:00:21.340Z,648.00
2023-05-19T02:01:19.742Z,648.00
2023-05-19T02:02:19.730Z,644.00
2023-05-19T02:03:19.784Z,640.00
2023-05-19T02:04:19.912Z,638.00
2023-05-19T02:05:19.928Z,639.00
2023-05-19T02:06:19.986Z,641.00
2023-05-19T02:07:19.977Z,641.00
2023-05-19T02:08:20.041Z,642.00
2023-05-19T02:09:20.053Z,640.00
2023-05-19T02:10:20.083Z,639.00
2023-05-19T02:11:20.177Z,637.00
2023-05-19T02:12:20.207Z,638.00
2023-05-19T02:13:20.267Z,638.00
2023-05-19T02:14:20.312Z,636.00
2023-05-19T02:15:20.364Z,637.00
2023-05-19T02:16:20.601Z,639.00
2023-05-19T02:17:20.536Z,640.00
2023-05-19T02:18:20.547Z,641.00
2023-05-19T02:19:20.763Z,643.00
2023-05-19T02:20:20.636Z,642.00
2023-05-19T02:21:20.678Z,640.00
2023-05-19T02:22:20.721Z,638.00
2023-05-19T02:23:20.847Z,638.00
2023-05-19T02:24:20.827Z,640.00
2023-05-19T02:25:20.905Z,638.00
2023-05-19T02:26:21.293Z,639.00
2023-05-19T02:27:20.984Z,640.00
2023-05-19T02:28:21.027Z,642.00
2023-05-19T02:29:21.145Z,640.00
2023-05-19T02:30:21.201Z,637.00
2023-05-19T02:31:21.250Z,637.00
2023-05-19T02:32:21.273Z,638.00
2023-05-19T02:33:21.325Z,640.00
2023-05-19T02:34:21.398Z,642.00
2023-05-19T02:35:21.497Z,643.00
2023-05-19T02:36:21.524Z,645.00
2023-05-19T02:37:21.539Z,645.00
2023-05-19T02:38:21.648Z,647.00
2023-05-19T02:39:21.673Z,646.00
2023-05-19T02:40:21.738Z,641.00
2023-05-19T02:41:21.802Z,643.00
2023-05-19T02:42:21.917Z,642.00
2023-05-19T02:43:21.923Z,643.00
2023-05-19T02:44:22.014Z,643.00
2023-05-19T02:45:22.034Z,645.00
2023-05-19T02:46:22.371Z,644.00
2023-05-19T02:47:22.265Z,642.00
2023-05-19T02:48:22.223Z,640.00
2023-05-19T02:49:22.300Z,638.00
2023-05-19T02:50:22.326Z,638.00
2023-05-19T02:51:22.777Z,639.00
2023-05-19T02:52:22.492Z,639.00
2023-05-19T02:53:22.536Z,639.00
2023-05-19T02:54:22.659Z,639.00
2023-05-19T02:55:22.704Z,634.00
2023-05-19T02:56:22.739Z,633.00
2023-05-19T02:57:22.808Z,635.00
2023-05-19T02:58:22.828Z,635.00
2023-05-19T02:59:24.999Z,637.00
2023-05-19T03:00:23.133Z,637.00
2023-05-19T03:01:23.250Z,639.00
2023-05-19T03:02:23.196Z,639.00
2023-05-19T03:03:23.434Z,638.00
2023-05-19T03:04:23.307Z,637.00
2023-05-19T03:05:23.447Z,635.00
2023-05-19T03:06:23.468Z,638.00
2023-05-19T03:07:23.510Z,640.00
2023-05-19T03:08:23.554Z,640.00
2023-05-19T03:09:23.630Z,640.00
2023-05-19T03:10:23.720Z,639.00
2023-05-19T03:11:23.777Z,639.00
2023-05-19T03:12:23.792Z,640.00
2023-05-19T03:13:23.868Z,639.00
2023-05-19T03:14:24.127Z,635.00
2023-05-19T03:15:24.011Z,635.00
2023-05-19T03:16:24.063Z,634.00
2023-05-19T03:17:24.169Z,635.00
2023-05-19T03:18:24.178Z,633.00
2023-05-19T03:19:24.253Z,633.00
2023-05-19T03:20:24.205Z,633.00
2023-05-19T03:21:24.305Z,634.00
2023-05-19T03:22:24.334Z,634.00
2023-05-19T03:23:24.432Z,635.00
2023-05-19T03:24:24.448Z,630.00
2023-05-19T03:25:24.535Z,635.00
2023-05-19T03:26:24.664Z,636.00
2023-05-19T03:27:24.606Z,638.00
2023-05-19T03:28:24.680Z,636.00
2023-05-19T03:29:24.741Z,639.00
2023-05-19T03:30:24.801Z,638.00
2023-05-19T03:31:24.907Z,639.00
2023-05-19T03:32:25.024Z,638.00
2023-05-19T03:33:25.026Z,640.00
2023-05-19T03:34:25.067Z,641.00
2023-05-19T03:35:25.105Z,639.00
2023-05-19T03:36:25.190Z,638.00
2023-05-19T03:37:25.188Z,637.00
2023-05-19T03:38:25.242Z,638.00
2023-05-19T03:39:25.312Z,639.00
2023-05-19T03:40:25.355Z,640.00
2023-05-19T03:41:25.432Z,638.00
2023-05-19T03:42:25.490Z,635.00
2023-05-19T03:43:25.499Z,640.00
2023-05-19T03:44:25.691Z,639.00
2023-05-19T03:45:25.676Z,638.00
2023-05-19T03:46:25.844Z,637.00
2023-05-19T03:47:25.761Z,639.00
2023-05-19T03:48:25.767Z,640.00
2023-05-19T03:49:25.862Z,642.00
2023-05-19T03:50:25.913Z,641.00
2023-05-19T03:51:25.943Z,641.00
2023-05-19T03:52:26.017Z,643.00
2023-05-19T03:53:26.037Z,646.00
2023-05-19T03:54:26.108Z,647.00
2023-05-19T03:55:26.105Z,649.00
2023-05-19T03:56:26.171Z,650.00
2023-05-19T03:57:26.199Z,649.00
2023-05-19T03:58:26.260Z,647.00
2023-05-19T03:59:26.337Z,645.00
2023-05-19T04:00:26.475Z,643.00
2023-05-19T04:01:26.437Z,643.00
2023-05-19T04:02:26.565Z,642.00
2023-05-19T04:03:26.588Z,639.00
2023-05-19T04:04:26.680Z,637.00
2023-05-19T04:05:26.675Z,638.00
2023-05-19T04:06:26.846Z,638.00
2023-05-19T04:07:26.775Z,639.00
2023-05-19T04:08:26.801Z,640.00
2023-05-19T04:09:26.893Z,636.00
2023-05-19T04:10:26.932Z,636.00
2023-05-19T04:11:26.976Z,637.00
2023-05-19T04:12:27.025Z,637.00
2023-05-19T04:13:27.114Z,636.00
2023-05-19T04:14:27.130Z,637.00
2023-05-19T04:15:27.214Z,635.00
2023-05-19T04:16:27.460Z,636.00
2023-05-19T04:17:27.378Z,635.00
2023-05-19T04:18:29.062Z,635.00
2023-05-19T04:19:27.405Z,635.00
2023-05-19T04:20:27.457Z,636.00
2023-05-19T04:21:27.480Z,635.00
2023-05-19T04:22:27.539Z,637.00
2023-05-19T04:23:27.597Z,637.00
2023-05-19T04:24:27.621Z,634.00
2023-05-19T04:25:27.742Z,633.00
2023-05-19T04:26:27.742Z,635.00
2023-05-19T04:27:27.858Z,635.00
2023-05-19T04:28:27.865Z,637.00
2023-05-19T04:29:27.961Z,636.00
2023-05-19T04:30:28.030Z,637.00
2023-05-19T04:31:28.099Z,636.00
2023-05-19T04:32:28.193Z,636.00
2023-05-19T04:33:28.196Z,635.00
2023-05-19T04:34:28.273Z,634.00
2023-05-19T04:35:28.282Z,633.00
2023-05-19T04:36:28.386Z,634.00
2023-05-19T04:37:28.441Z,633.00
2023-05-19T04:38:28.489Z,634.00
2023-05-19T04:39:28.589Z,633.00
2023-05-19T04:40:28.614Z,633.00
2023-05-19T04:41:28.666Z,635.00
2023-05-19T04:42:28.736Z,633.00
2023-05-19T04:43:28.766Z,632.00
2023-05-19T04:44:28.825Z,633.00
2023-05-19T04:45:28.981Z,630.00
2023-05-19T04:46:28.983Z,633.00
2023-05-19T04:47:29.030Z,632.00
2023-05-19T04:48:29.095Z,632.00
2023-05-19T04:49:29.120Z,631.00
2023-05-19T04:50:29.184Z,634.00
2023-05-19T04:51:30.601Z,633.00
2023-05-19T04:52:29.307Z,634.00
2023-05-19T04:53:29.306Z,636.00
2023-05-19T04:54:29.372Z,638.00
2023-05-19T04:55:29.433Z,639.00
2023-05-19T04:56:29.546Z,637.00
2023-05-19T04:57:29.544Z,637.00
2023-05-19T04:58:29.607Z,637.00
2023-05-19T04:59:29.608Z,635.00
2023-05-19T05:00:29.803Z,635.00
2023-05-19T05:01:29.782Z,633.00
2023-05-19T05:02:29.831Z,635.00
2023-05-19T05:03:29.978Z,631.00
2023-05-19T05:04:30.058Z,631.00
2023-05-19T05:05:30.015Z,634.00
2023-05-19T05:06:30.046Z,635.00
2023-05-19T05:07:32.216Z,634.00
2023-05-19T05:08:30.191Z,632.00
2023-05-19T05:09:30.200Z,633.00
2023-05-19T05:10:30.364Z,629.00
2023-05-19T05:11:30.283Z,627.00
2023-05-19T05:12:30.422Z,629.00
2023-05-19T05:13:30.410Z,630.00
2023-05-19T05:14:30.492Z,628.00
2023-05-19T05:15:30.543Z,625.00
2023-05-19T05:16:30.584Z,629.00
2023-05-19T05:17:30.637Z,628.00
2023-05-19T05:18:30.697Z,629.00
2023-05-19T05:19:30.844Z,629.00
2023-05-19T05:20:30.873Z,628.00
2023-05-19T05:21:30.837Z,632.00
2023-05-19T05:22:30.884Z,632.00
2023-05-19T05:23:30.895Z,631.00
2023-05-19T05:24:30.956Z,632.00
2023-05-19T05:25:31.147Z,631.00
2023-05-19T05:26:31.054Z,631.00
2023-05-19T05:27:31.121Z,632.00
2023-05-19T05:28:31.129Z,635.00
2023-05-19T05:29:31.261Z,632.00
2023-05-19T05:30:31.268Z,630.00
2023-05-19T05:31:31.328Z,627.00
2023-05-19T05:32:31.430Z,626.00
2023-05-19T05:33:31.470Z,625.00
2023-05-19T05:34:31.471Z,625.00
2023-05-19T05:35:31.602Z,623.00
2023-05-19T05:36:31.549Z,626.00
2023-05-19T05:37:31.582Z,625.00
2023-05-19T05:38:31.659Z,625.00
2023-05-19T05:39:31.671Z,626.00
2023-05-19T05:40:31.707Z,623.00
2023-05-19T05:41:31.893Z,624.00
2023-05-19T05:42:31.833Z,624.00
2023-05-19T05:43:31.843Z,623.00
2023-05-19T05:44:31.890Z,623.00
2023-05-19T05:45:32.058Z,621.00
2023-05-19T05:46:32.135Z,621.00
2023-05-19T05:47:32.103Z,620.00
2023-05-19T05:48:32.086Z,621.00
2023-05-19T05:49:32.178Z,621.00
2023-05-19T05:50:32.266Z,623.00
2023-05-19T05:51:32.265Z,622.00
2023-05-19T05:52:32.347Z,623.00
2023-05-19T05:53:32.382Z,625.00
2023-05-19T05:54:32.397Z,625.00
2023-05-19T05:55:32.591Z,625.00
2023-05-19T05:56:32.513Z,623.00
2023-05-19T05:57:32.553Z,622.00
2023-05-19T05:58:32.553Z,622.00
2023-05-19T05:59:32.636Z,620.00
2023-05-19T06:00:32.840Z,620.00
2023-05-19T06:01:34.863Z,619.00
2023-05-19T06:02:32.820Z,620.00
2023-05-19T06:03:32.833Z,620.00
2023-05-19T06:04:32.722Z,618.00
2023-05-19T06:05:32.826Z,619.00
2023-05-19T06:06:32.732Z,622.00
2023-05-19T06:07:32.679Z,621.00
2023-05-19T06:08:32.701Z,622.00
2023-05-19T06:09:32.717Z,619.00
2023-05-19T06:10:32.809Z,621.00
2023-05-19T06:11:32.875Z,620.00
2023-05-19T06:12:32.646Z,621.00
2023-05-19T06:13:32.688Z,622.00
2023-05-19T06:14:32.657Z,623.00
2023-05-19T06:15:32.697Z,623.00
2023-05-19T06:16:32.921Z,623.00
2023-05-19T06:17:32.651Z,626.00
2023-05-19T06:18:32.623Z,624.00
2023-05-19T06:19:32.598Z,625.00
2023-05-19T06:20:32.776Z,623.00
2023-05-19T06:21:32.895Z,623.00
2023-05-19T06:22:32.589Z,621.00
2023-05-19T06:23:32.601Z,619.00
2023-05-19T06:24:32.617Z,620.00
2023-05-19T06:25:32.750Z,620.00
2023-05-19T06:26:32.917Z,618.00
2023-05-19T06:27:34.649Z,621.00
2023-05-19T06:28:32.571Z,622.00
2023-05-19T06:29:32.546Z,620.00
2023-05-19T06:30:32.832Z,624.00
2023-05-19T06:31:32.736Z,622.00
2023-05-19T06:32:32.731Z,624.00
2023-05-19T06:33:32.819Z,623.00
2023-05-19T06:34:32.810Z,625.00
2023-05-19T06:35:32.921Z,624.00
2023-05-19T06:36:32.968Z,622.00
2023-05-19T06:37:33.041Z,621.00
2023-05-19T06:38:33.111Z,621.00
2023-05-19T06:39:33.169Z,620.00
2023-05-19T06:40:33.474Z,621.00
2023-05-19T06:41:33.893Z,622.00
2023-05-19T06:42:33.345Z,622.00
2023-05-19T06:43:33.378Z,622.00
2023-05-19T06:44:33.431Z,623.00
2023-05-19T06:45:33.571Z,622.00
2023-05-19T06:46:33.926Z,622.00
2023-05-19T06:47:33.621Z,626.00
2023-05-19T06:48:33.709Z,624.00
2023-05-19T06:49:33.753Z,627.00
2023-05-19T06:50:33.938Z,630.00
2023-05-19T06:51:33.896Z,629.00
2023-05-19T06:52:33.871Z,630.00
2023-05-19T06:53:33.933Z,630.00
2023-05-19T06:54:33.956Z,629.00
2023-05-19T06:55:37.108Z,627.00
2023-05-19T06:56:35.381Z,623.00
2023-05-19T06:57:34.012Z,618.00
2023-05-19T06:58:34.000Z,620.00
2023-05-19T06:59:33.965Z,623.00
2023-05-19T07:00:34.151Z,624.00
2023-05-19T07:01:34.000Z,624.00
2023-05-19T07:02:34.034Z,624.00
2023-05-19T07:03:34.036Z,625.00
2023-05-19T07:04:33.923Z,621.00
2023-05-19T07:05:33.963Z,623.00
2023-05-19T07:06:34.005Z,625.00
2023-05-19T07:07:33.928Z,622.00
2023-05-19T07:08:34.015Z,624.00
2023-05-19T07:09:33.995Z,626.00
2023-05-19T07:10:34.380Z,625.00
2023-05-19T07:11:34.162Z,628.00
2023-05-19T07:12:34.154Z,630.00
2023-05-19T07:13:34.249Z,630.00
2023-05-19T07:14:34.270Z,629.00
2023-05-19T07:15:34.307Z,632.00
2023-05-19T07:16:34.429Z,630.00
2023-05-19T07:17:34.491Z,630.00
2023-05-19T07:18:34.507Z,632.00
2023-05-19T07:19:34.544Z,631.00
2023-05-19T07:20:34.745Z,631.00
2023-05-19T07:21:34.661Z,631.00
2023-05-19T07:22:34.714Z,631.00
2023-05-19T07:23:34.795Z,632.00
2023-05-19T07:24:34.845Z,632.00
2023-05-19T07:25:34.860Z,631.00
2023-05-19T07:26:34.929Z,631.00
2023-05-19T07:27:34.960Z,631.00
2023-05-19T07:28:35.104Z,629.00
2023-05-19T07:29:35.070Z,629.00
2023-05-19T07:30:35.234Z,628.00
2023-05-19T07:31:35.242Z,628.00
2023-05-19T07:32:35.251Z,628.00
2023-05-19T07:33:35.233Z,625.00
2023-05-19T07:34:35.308Z,624.00
2023-05-19T07:35:35.320Z,626.00
2023-05-19T07:36:35.391Z,625.00
2023-05-19T07:37:35.410Z,623.00
2023-05-19T07:38:35.512Z,624.00
2023-05-19T07:39:35.472Z,623.00
2023-05-19T07:40:35.540Z,625.00
2023-05-19T07:41:36.453Z,627.00
2023-05-19T07:42:35.592Z,626.00
2023-05-19T07:43:35.632Z,627.00
2023-05-19T07:44:35.714Z,626.00
2023-05-19T07:45:35.861Z,624.00
2023-05-19T07:46:35.904Z,622.00
2023-05-19T07:47:35.840Z,623.00
2023-05-19T07:48:35.852Z,623.00
2023-05-19T07:49:35.928Z,625.00
2023-05-19T07:50:35.975Z,623.00
2023-05-19T07:51:35.999Z,621.00
2023-05-19T07:52:36.043Z,618.00
2023-05-19T07:53:36.099Z,620.00
2023-05-19T07:54:36.118Z,619.00
2023-05-19T07:55:36.154Z,622.00
2023-05-19T07:56:36.208Z,624.00
2023-05-19T07:57:36.265Z,626.00
2023-05-19T07:58:36.295Z,624.00
2023-05-19T07:59:36.356Z,624.00
2023-05-19T08:00:36.356Z,621.00
2023-05-19T08:01:36.903Z,621.00
2023-05-19T08:02:36.526Z,619.00
2023-05-19T08:03:36.605Z,619.00
2023-05-19T08:04:36.587Z,619.00
2023-05-19T08:05:36.546Z,620.00
2023-05-19T08:06:36.642Z,620.00
2023-05-19T08:07:36.695Z,619.00
2023-05-19T08:08:36.698Z,618.00
2023-05-19T08:09:36.716Z,618.00
2023-05-19T08:10:36.816Z,618.00
2023-05-19T08:11:36.908Z,618.00
2023-05-19T08:12:36.876Z,619.00
2023-05-19T08:13:36.980Z,621.00
2023-05-19T08:14:36.966Z,625.00
2023-05-19T08:15:37.072Z,624.00
2023-05-19T08:16:37.076Z,624.00
2023-05-19T08:17:37.088Z,625.00
2023-05-19T08:18:37.177Z,625.00
2023-05-19T08:19:37.200Z,624.00
2023-05-19T08:20:37.276Z,626.00
2023-05-19T08:21:37.423Z,626.00
2023-05-19T08:22:37.315Z,623.00
2023-05-19T08:23:37.435Z,622.00
2023-05-19T08:24:37.402Z,623.00
2023-05-19T08:25:37.497Z,622.00
2023-05-19T08:26:37.909Z,623.00
2023-05-19T08:27:37.561Z,623.00
2023-05-19T08:28:37.533Z,620.00
2023-05-19T08:29:37.619Z,619.00
2023-05-19T08:30:37.648Z,621.00
2023-05-19T08:31:37.818Z,620.00
2023-05-19T08:32:37.691Z,618.00
2023-05-19T08:33:37.713Z,618.00
2023-05-19T08:34:37.708Z,616.00
2023-05-19T08:35:37.766Z,616.00
2023-05-19T08:36:37.760Z,615.00
2023-05-19T08:37:37.765Z,615.00
2023-05-19T08:38:37.803Z,614.00
2023-05-19T08:39:37.819Z,616.00
2023-05-19T08:40:37.851Z,613.00
2023-05-19T08:41:37.862Z,613.00
2023-05-19T08:42:37.879Z,612.00
2023-05-19T08:43:37.839Z,613.00
2023-05-19T08:44:37.890Z,613.00
2023-05-19T08:45:37.877Z,615.00
2023-05-19T08:46:37.927Z,618.00
2023-05-19T08:47:37.979Z,619.00
2023-05-19T08:48:37.909Z,619.00
2023-05-19T08:49:37.942Z,618.00
2023-05-19T08:50:37.957Z,619.00
2023-05-19T08:51:37.951Z,617.00
2023-05-19T08:52:37.970Z,618.00
2023-05-19T08:53:37.993Z,619.00
2023-05-19T08:54:38.018Z,620.00
2023-05-19T08:55:38.013Z,619.00
2023-05-19T08:56:38.397Z,619.00
2023-05-19T08:57:38.049Z,618.00
2023-05-19T08:58:38.070Z,616.00
2023-05-19T08:59:38.095Z,615.00
2023-05-19T09:00:38.182Z,614.00
2023-05-19T09:01:38.426Z,614.00
2023-05-19T09:02:46.406Z,615.00
2023-05-19T09:03:39.219Z,613.00
2023-05-19T09:04:38.189Z,612.00
2023-05-19T09:05:38.177Z,614.00
2023-05-19T09:06:38.158Z,614.00
2023-05-19T09:07:38.111Z,615.00
2023-05-19T09:08:38.072Z,613.00
2023-05-19T09:09:38.090Z,614.00
2023-05-19T09:10:38.078Z,619.00
2023-05-19T09:11:38.053Z,618.00
2023-05-19T09:12:38.085Z,617.00
2023-05-19T09:13:38.050Z,616.00
2023-05-19T09:14:38.035Z,612.00
2023-05-19T09:15:38.072Z,614.00
2023-05-19T09:16:38.119Z,612.00
2023-05-19T09:17:38.082Z,608.00
2023-05-19T09:18:38.065Z,609.00
2023-05-19T09:19:38.027Z,611.00
2023-05-19T09:20:38.024Z,610.00
2023-05-19T09:21:38.398Z,611.00
2023-05-19T09:22:37.991Z,610.00
2023-05-19T09:23:38.024Z,610.00
2023-05-19T09:24:37.980Z,611.00
2023-05-19T09:25:37.950Z,610.00
2023-05-19T09:26:38.429Z,610.00
2023-05-19T09:27:37.968Z,611.00
2023-05-19T09:28:38.087Z,610.00
2023-05-19T09:29:37.935Z,611.00
2023-05-19T09:30:37.947Z,614.00
2023-05-19T09:31:38.480Z,613.00
2023-05-19T09:32:37.983Z,614.00
2023-05-19T09:33:37.978Z,612.00
2023-05-19T09:34:37.972Z,613.00
2023-05-19T09:35:37.999Z,615.00
2023-05-19T09:36:38.411Z,612.00
2023-05-19T09:37:38.002Z,613.00
2023-05-19T09:38:37.987Z,614.00
2023-05-19T09:39:37.977Z,613.00
2023-05-19T09:40:37.974Z,617.00
2023-05-19T09:41:38.023Z,616.00
2023-05-19T09:42:38.009Z,617.00
2023-05-19T09:43:38.006Z,618.00
2023-05-19T09:44:38.012Z,618.00
2023-05-19T09:45:38.018Z,617.00
2023-05-19T09:46:38.174Z,617.00
2023-05-19T09:47:38.073Z,618.00
2023-05-19T09:48:38.017Z,620.00
2023-05-19T09:49:38.027Z,618.00
2023-05-19T09:50:38.036Z,619.00
2023-05-19T09:51:38.032Z,616.00
2023-05-19T09:52:38.072Z,616.00
2023-05-19T09:53:38.026Z,614.00
2023-05-19T09:54:38.065Z,612.00
2023-05-19T09:55:38.051Z,611.00
2023-05-19T09:56:38.017Z,612.00
2023-05-19T09:57:38.037Z,609.00
2023-05-19T09:58:38.017Z,611.00
2023-05-19T09:59:38.056Z,611.00
2023-05-19T10:00:38.002Z,612.00
2023-05-19T10:01:38.009Z,611.00
2023-05-19T10:02:38.014Z,611.00
2023-05-19T10:03:38.006Z,612.00
2023-05-19T10:04:38.036Z,612.00
2023-05-19T10:05:38.043Z,612.00
2023-05-19T10:06:38.061Z,613.00
2023-05-19T10:07:37.993Z,612.00
2023-05-19T10:08:37.992Z,612.00
2023-05-19T10:09:38.028Z,614.00
2023-05-19T10:10:38.018Z,611.00
2023-05-19T10:11:38.042Z,611.00
2023-05-19T10:12:38.012Z,610.00
2023-05-19T10:13:38.037Z,610.00
2023-05-19T10:14:38.013Z,609.00
2023-05-19T10:15:46.646Z,607.00
2023-05-19T10:16:39.054Z,607.00
2023-05-19T10:17:37.978Z,607.00
2023-05-19T10:18:39.979Z,607.00
2023-05-19T10:19:38.001Z,605.00
2023-05-19T10:20:38.002Z,605.00
2023-05-19T10:21:37.980Z,604.00
2023-05-19T10:22:37.957Z,604.00
2023-05-19T10:23:37.964Z,602.00
2023-05-19T10:24:37.999Z,601.00
2023-05-19T10:25:37.933Z,600.00
2023-05-19T10:26:37.972Z,595.00
2023-05-19T10:27:37.928Z,594.00
2023-05-19T10:28:37.927Z,594.00
2023-05-19T10:29:37.914Z,596.00
2023-05-19T10:30:37.908Z,596.00
2023-05-19T10:31:37.920Z,598.00
2023-05-19T10:32:38.036Z,600.00
2023-05-19T10:33:37.927Z,600.00
2023-05-19T10:34:37.875Z,600.00
2023-05-19T10:35:38.208Z,600.00
2023-05-19T10:36:37.899Z,601.00
2023-05-19T10:37:37.862Z,600.00
2023-05-19T10:38:37.878Z,600.00
2023-05-19T10:39:37.869Z,600.00
2023-05-19T10:40:37.926Z,603.00
2023-05-19T10:41:37.932Z,605.00
2023-05-19T10:42:37.981Z,605.00
2023-05-19T10:43:38.001Z,604.00
2023-05-19T10:44:38.051Z,604.00
2023-05-19T10:45:38.962Z,602.00
2023-05-19T10:46:38.147Z,603.00
2023-05-19T10:47:38.207Z,602.00
2023-05-19T10:48:38.195Z,605.00
2023-05-19T10:49:38.251Z,604.00
2023-05-19T10:50:38.244Z,603.00
2023-05-19T10:51:38.276Z,603.00
2023-05-19T10:52:38.314Z,603.00
2023-05-19T10:53:38.323Z,600.00
2023-05-19T10:54:38.381Z,602.00
2023-05-19T10:55:38.385Z,601.00
2023-05-19T10:56:38.425Z,605.00
2023-05-19T10:57:38.459Z,603.00
2023-05-19T10:58:38.463Z,602.00
2023-05-19T10:59:38.473Z,601.00
2023-05-19T11:00:38.516Z,599.00
2023-05-19T11:01:38.582Z,600.00
2023-05-19T11:02:38.638Z,599.00
2023-05-19T11:03:38.698Z,602.00
2023-05-19T11:04:38.655Z,602.00
2023-05-19T11:05:38.671Z,601.00
2023-05-19T11:06:38.777Z,598.00
2023-05-19T11:07:38.734Z,596.00
2023-05-19T11:08:38.725Z,598.00
2023-05-19T11:09:40.602Z,601.00
2023-05-19T11:10:38.809Z,598.00
2023-05-19T11:11:38.858Z,599.00
2023-05-19T11:12:38.859Z,597.00
2023-05-19T11:13:38.867Z,596.00
2023-05-19T11:14:38.895Z,594.00
2023-05-19T11:15:38.913Z,596.00
2023-05-19T11:16:38.927Z,596.00
2023-05-19T11:17:39.049Z,596.00
2023-05-19T11:18:39.037Z,598.00
2023-05-19T11:19:39.011Z,597.00
2023-05-19T11:20:39.039Z,596.00
2023-05-19T11:21:39.075Z,597.00
2023-05-19T11:22:39.086Z,594.00
2023-05-19T11:23:39.194Z,596.00
2023-05-19T11:24:39.146Z,598.00
2023-05-19T11:25:39.210Z,599.00
2023-05-19T11:26:39.222Z,597.00
2023-05-19T11:27:39.219Z,597.00
2023-05-19T11:28:39.232Z,596.00
2023-05-19T11:29:40.007Z,596.00
2023-05-19T11:30:39.308Z,596.00
2023-05-19T11:31:39.344Z,597.00
2023-05-19T11:32:39.521Z,597.00
2023-05-19T11:33:39.365Z,595.00
2023-05-19T11:34:39.385Z,595.00
2023-05-19T11:35:39.715Z,593.00
2023-05-19T11:36:39.437Z,593.00
2023-05-19T11:37:39.495Z,592.00
2023-05-19T11:38:39.550Z,589.00
2023-05-19T11:39:39.560Z,588.00
2023-05-19T11:40:39.566Z,586.00
2023-05-19T11:41:39.630Z,583.00
2023-05-19T11:42:39.993Z,585.00
2023-05-19T11:43:39.633Z,585.00
2023-05-19T11:44:39.634Z,587.00
2023-05-19T11:45:39.703Z,590.00
2023-05-19T11:46:39.776Z,590.00
2023-05-19T11:47:57.177Z,591.00
2023-05-19T11:48:40.777Z,594.00
2023-05-19T11:49:39.720Z,594.00
2023-05-19T11:50:39.702Z,594.00
2023-05-19T11:51:39.739Z,594.00
2023-05-19T11:52:40.013Z,595.00
2023-05-19T11:53:39.753Z,593.00
2023-05-19T11:54:39.668Z,592.00
2023-05-19T11:55:39.699Z,591.00
2023-05-19T11:56:39.668Z,591.00
2023-05-19T11:57:40.504Z,590.00
2023-05-19T11:58:39.658Z,591.00
2023-05-19T11:59:39.618Z,592.00
2023-05-19T12:00:40.019Z,592.00
2023-05-19T12:01:39.601Z,587.00
2023-05-19T12:02:39.705Z,589.00
2023-05-19T12:03:39.774Z,588.00
2023-05-19T12:04:39.616Z,587.00
2023-05-19T12:05:42.875Z,586.00
2023-05-19T12:06:39.708Z,586.00
2023-05-19T12:07:39.629Z,584.00
2023-05-19T12:08:39.571Z,587.00
2023-05-19T12:09:39.578Z,589.00
2023-05-19T12:10:39.567Z,589.00
2023-05-19T12:11:39.574Z,590.00
2023-05-19T12:12:39.571Z,591.00
2023-05-19T12:13:39.559Z,589.00
2023-05-19T12:14:39.509Z,588.00
2023-05-19T12:15:39.784Z,586.00
2023-05-19T12:16:39.636Z,587.00
2023-05-19T12:17:39.538Z,588.00
2023-05-19T12:18:39.512Z,588.00
2023-05-19T12:19:39.528Z,589.00
2023-05-19T12:20:39.472Z,588.00
2023-05-19T12:21:39.489Z,584.00
2023-05-19T12:22:39.499Z,584.00
2023-05-19T12:23:39.472Z,585.00
2023-05-19T12:24:39.494Z,584.00
2023-05-19T12:25:39.472Z,583.00
2023-05-19T12:26:40.010Z,584.00
2023-05-19T12:27:39.489Z,583.00
2023-05-19T12:28:39.438Z,583.00